arxmliv
arxmliv build tool
 
KWARC group
LaTeXML
About
   
 

Detailed info

Back to Homepage

List of missing_macros

No. Date Filename num_warningnum_errornum_xmargok_xmargnum_xmathok_xmathMissing macros
163201 2013-02-25 18:53:00 /0003/hep-th.0003031 420000[\psfig]; 1 missing file[psfig.tex].
163202 2013-02-25 18:52:52 /0003/hep-th.0003009 4310000[\theappendix].
163203 2013-02-25 18:52:39 /0003/hep-th.0003018 27290000[\xoverv, {xy}, \vunder, \xymatrix, \crv, \frm, \xunderv, Align, \everyxy, \xycircle, \dir, \ar]; 1 missing file[xy.sty].
163204 2013-02-25 18:51:59 /0003/hep-th.0003021 13250000[{fmffile}, \fmf, \fmfcmd, \fmflabel, \fmfv, \fmftop, \fmfdot, {fmfgraph*}, \fmfset, \fmfleft, \fmfright].
163205 2013-02-25 18:51:35 /0003/hep-th.0003010 11140000[\Curve, \Text, \Line, \ArrowLine, \SetScale, \Oval].
163206 2013-02-25 18:51:35 /0003/hep-th.0003011 6230000[\Text, \ArrowLine, \Photon].
163207 2013-02-25 18:51:31 /0003/hep-ph.0003318 42390000[\Text, \Vertex, \Line, \ArrowLine, \SetWidth, \Photon, \Gluon].
163208 2013-02-25 18:49:19 /0003/hep-ph.0003323 4110000[\rotate].
163209 2013-02-25 18:48:10 /0003/hep-ph.0003315 180000[\PLB, \Journal, \epsfbox, \abstracts, \PRL, \NPB, \epsfxsize]; 1 missing file[ws.sty].
163210 2013-02-25 18:48:08 /0003/hep-ph.0003314 780000[\PLB, \Journal, \epsfbox, \abstracts, \ZPC, \epsfxsize]; 1 missing file[ws.sty].
163211 2013-02-25 18:47:40 /0003/hep-ph.0003275 7040000[\Vertex, \ArrowLine, \Photon, \institute].
163212 2013-02-25 18:47:18 /0003/hep-ph.0003238 362460000[\rotate].
163213 2013-02-25 18:47:16 /0003/hep-ph.0003306 3420000[\abstracts]; 1 missing file[ws.sty].
163214 2013-02-25 18:43:17 /0003/hep-ph.0003276 410000[\abstracts].
163215 2013-02-25 18:42:58 /0003/hep-ph.0003259 620000[\address, \fntext].
163216 2013-02-25 18:42:14 /0003/hep-ph.0003265 180000[\PLB, \PRD, \NPB, \Journal, \epsfbox, \abstracts, \PRL, \epsfysize].
163217 2013-02-25 18:42:08 /0003/hep-ph.0003248 1030000[\epsfbox, \abstracts]; 1 missing file[ws.sty].
163218 2013-02-25 18:41:59 /0003/hep-ph.0003250 340000[\epsfbox, \abstracts, \epsfxsize]; 1 missing file[ws.sty].
163219 2013-02-25 18:40:48 /0003/hep-ph.0003225 2230000[\Text, \Line, \DashLine].
163220 2013-02-25 18:38:57 /0003/hep-ph.0003221 4310000[\@cite].
163221 2013-02-25 18:38:16 /0003/hep-ph.0003207 25130000[\BCirc, \rText, \Photon, \Vertex, \GCirc, \Text, \ArrowLine, \LongArrowArcn, \SetWidth, \SetScale, \LongArrow, \DashLine, \LongArrowArc].
163222 2013-02-25 18:38:05 /0003/hep-ph.0003212 1520000[\epsffile, \epsfxsize].
163223 2013-02-25 18:37:48 /0003/hep-ph.0003211 120000[\address]; 1 missing file[run2col.sty].
163224 2013-02-25 18:37:32 /0003/hep-ph.0003198 22770000[Align]; 1 missing file[equation.sty].
163225 2013-02-25 18:36:25 /0003/hep-ph.0003159 158100000[\ArrowArc, \Line, \Photon, \ArrowLine, \Vertex, \Text, \DashCArc, \CArc, \Gluon, \DashLine].
163226 2013-02-25 18:35:36 /0003/hep-ph.0003193 020000[\address]; 1 missing file[run2col.sty].
163227 2013-02-25 18:35:07 /0003/hep-ph.0003183 9120000[\psfig]; 1 missing file[psfig].
163228 2013-02-25 18:32:58 /0003/hep-ph.0003157 2310000[\theappendix].
163229 2013-02-25 18:32:30 /0003/hep-ph.0003142 105150000[\Line, \Text, \LongArrow, \GOval, \institute, \DashLine, \Gluon].
163230 2013-02-25 18:32:19 /0003/hep-ph.0003162 060000[\address, \epsfbox, \pacs, \epsfxsize, \keywords].
163231 2013-02-25 18:31:54 /0003/hep-ph.0003147 440000[\address, \epsfbox, \epsfysize, \epsfxsize].
163232 2013-02-25 18:29:52 /0003/hep-ph.0003126 1160000[\psfig]; 1 missing file[psfig].
163233 2013-02-25 18:29:22 /0003/hep-ph.0003128 320000[\epsffile, \epsfxsize].
163234 2013-02-25 18:28:18 /0003/hep-ph.0003105 3750000[\@thanks, \@authoraddress, \@date, \@title, \@abstract].
163235 2013-02-25 18:27:09 /0003/hep-ph.0003111 2880000[\Line, {centering}, \GCirc, \Text, \SetWidth, \SetScale, \CArc, \DashLine].
163236 2013-02-25 18:26:51 /0003/hep-ph.0003106 8200000[\address, \epsfbox, \pacs, \epsfxsize, \epsfysize, \keywords].
163237 2013-02-25 18:25:30 /0003/hep-ph.0003095 120000[\Instfoot, \Instref].
163238 2013-02-25 18:24:55 /0003/hep-ph.0003103 350000[\address, \epsfbox, \epsfysize, \epsfxsize, \keywords].
163239 2013-02-25 18:24:01 /0003/hep-ph.0003084 105140000[\fmffreeze, {fmffile}, \fmf, \fmflabel, \fmfbottom, \fmfv, \fmftop, \fmfdot, {fmfgraph*}, \fmfleft, \fmfright].
163240 2013-02-25 18:22:03 /0003/hep-ph.0003073 95100000[\Photon, \ArrowArcn, \ArrowLine, \Vertex, \Text, \SetWidth, \SetScale, \LongArrow, \DashArrowArcn, \DashLine].
163241 2013-02-25 18:21:07 /0003/hep-ph.0003069 16340000[\epsffileline, \abstracts]; 1 missing file[ws.sty].
163242 2013-02-25 18:20:56 /0003/hep-ph.0003056 860000[\Line, \Text, \LongArrow, \GOval, \DashLine, \Gluon].
163243 2013-02-25 18:20:30 /0003/hep-ph.0003033 7370000[\institute].
163244 2013-02-25 18:19:49 /0003/hep-ph.0003053 40260000[\whiten, \Thicklines, \arc, \dashline, \path].
163245 2013-02-25 18:19:45 /0003/hep-ph.0003049 1950000[\nonumsection, \citenum, \abstracts, \fcaption, \textlineskip].
163246 2013-02-25 18:19:40 /0003/hep-ph.0003046 0290000[\address, {references}, \psfig, \epsffile, \epsfysize].
163247 2013-02-25 18:18:28 /0003/hep-ph.0003043 1280000[\Line, \Text, \ArrowLine, \Photon, \CArc, \DashArrowArcn, \DashLine, \DashArrowLine].
163248 2013-02-25 18:17:24 /0003/hep-ph.0003028 030000[{instit}, \moreauthors]; 1 missing file[version2.sty].
163249 2013-02-25 18:17:15 /0003/hep-ph.0003015 4750000[\Line, \GCirc, \ArrowLine, \Text, \Photon].
163250 2013-02-25 18:17:12 /0003/hep-ph.0003029 280000[\address, \epsfbox, \pacs, \epsfxsize, \epsfysize, \keywords].
163251 2013-02-25 18:17:10 /0003/hep-ph.0003017 1140000[{keywords}, \affiliation, \epsfig]; 1 missing file[ar.sty].
163252 2013-02-25 18:13:34 /1201/1201.3767 8140000[\extrasenglish, \geometry, \dateenglish, \captionsenglish].
163253 2013-02-25 18:13:26 /0003/hep-lat.0003004 1230000[\psfrag].
163254 2013-02-25 18:13:16 /0003/hep-lat.0003007 34770000[\psfrag].
163255 2013-02-25 18:13:13 /0003/hep-lat.0003020 810000[{centering}].
163256 2013-02-25 18:13:03 /0003/hep-lat.0003001 120000[\slashed, \numreferences].
163257 2013-02-25 18:12:37 /0003/hep-ex.0003023 14160000[\EPJ, \Zo, \preprint, \Lep, \ra, \journalname, \CPC, \PRL, \ZfP, \PL, \submitted, \ee, \PR, \etal]; 2 missing files[Lep.sty, l3_title.sty].
163258 2013-02-25 18:12:12 /0003/hep-ex.0003016 1060000[\Pgmp, \Pe, \Pep, \PW, \Pgmm, \Pem].
163259 2013-02-25 18:12:00 /0003/hep-ex.0003030 010000[\address].
163260 2013-02-25 18:11:48 /0003/gr-qc.0003101 1350000[\comment, \epsfig, \psfig, \epsffile, \epsfxsize].
163261 2013-02-25 18:11:22 /0003/hep-ex.0003021 110000[\abstracts].
163262 2013-02-25 18:10:57 /0003/gr-qc.0003115 70660000[\cV, \cM, \bfH, \flatten, \Sym, \cT, \cS, \bfS, \sect, \bsOmega, \bssigma, \bbA, \bfE, \bscE, \rmi, \bfone, \bscA, \cJ, \bbF, \cC, \rmL, \bfd, \bfv, \cD, \bbB, \bsgamma, \cR, \bbT, \eqn, \bfb, \bfs, \Alt, \wrt, \bfe, \cF, \sharpen, \bfJ, \bfY, \bfD, \bsS
163263 2013-02-25 18:09:50 /0003/gr-qc.0003102 710000[\tfrac].
163264 2013-02-25 18:08:46 /0003/gr-qc.0003072 43490000[\includegraphics, \affil, \email, {references}, {article}, \authorrunninghead, \keywords, \titlerunninghead].
163265 2013-02-25 18:08:20 /0003/gr-qc.0003058 980000[\nonumsection, \copyrightheading, \abstracts, \fpage, \runninghead, \textlineskip, \publisher]; 1 missing file[ijmpd.sty].
163266 2013-02-25 18:08:13 /0003/gr-qc.0003053 91410000[\bezier].
163267 2013-02-25 18:08:01 /0003/gr-qc.0003060 730000[\ftnote, \epsfbox, \epsfxsize].
163268 2013-02-25 18:07:49 /0003/gr-qc.0003064 12710000[\rtimes].
163269 2013-02-25 18:07:47 /0003/gr-qc.0003065 13410000[\rtimes].
163270 2013-02-25 18:06:11 /0003/gr-qc.0003017 19520000[\psfrag]; 1 missing file[epsffrag.sty].
163271 2013-02-25 18:05:50 /0003/gr-qc.0003030 020000[\Qcb, \FRAME].
163272 2013-02-25 18:04:51 /0003/cs.0003080 6020000[\harvarditem, \citeasnoun].
163273 2013-02-25 18:04:48 /0003/gr-qc.0003014 230000[\titlerunning, \institute, \authorrunning]; 1 missing file[lamu.cls].
163274 2013-02-25 18:04:27 /0003/cs.0003081 7140000[\address, \ninept, \name]; 1 missing file[sp_conf.sty].
163275 2013-02-25 18:04:16 /0003/gr-qc.0003003 7330000[\pssilent, \psfig]; 1 missing file[psfig].
163276 2013-02-25 18:04:15 /0003/cs.0003076 3530000[\email, \citename, {proof}]; 1 missing file[tlp.cls].
163277 2013-02-25 18:04:14 /0003/cs.0003084 5250000[\citeauthoryear, \shortciteANP, \shortciteN, \shortcite, \citeN].
163278 2013-02-25 18:03:24 /0003/cs.0003074 230000[\citename, \newcite]; 1 missing file[colacl.sty].
163279 2013-02-25 18:03:22 /0003/cs.0003077 040000[\citeauthoryear, \psfig]; 2 missing files[psfig, AAAI.sty].
163280 2013-02-25 18:03:17 /0003/cs.0003049 1620000[\And]; 1 missing file[aaai.sty].
163281 2013-02-25 18:03:12 /0003/cs.0003061 030000[\psfig]; 2 missing files[psfig, AAAI.sty].
163282 2013-02-25 18:03:10 /0003/cs.0003070 1160000[\theappendix, {example}, {definition}, {lemma}, {corollary}, {remark}].
163283 2013-02-25 18:03:05 /0003/cs.0003052 2720000[\And]; 1 missing file[br.sty].
163284 2013-02-25 18:03:05 /0003/cs.0003068 1510000[\theappendix].
163285 2013-02-25 18:03:04 /0003/cs.0003060 030000[\email, \citename]; 1 missing file[colacl.sty].
163286 2013-02-25 18:02:58 /0003/cs.0003039 050000[\citeauthoryear, \shortcite, \And, \copyrighttext]; 1 missing file[aaai.sty].
163287 2013-02-25 18:02:41 /0003/cs.0003044 720000[\citeauthoryear]; 1 missing file[nm2000.sty].
163288 2013-02-25 18:02:41 /0003/cs.0003056 320000[\citeauthoryear]; 1 missing file[aaai.sty].
163289 2013-02-25 18:02:35 /0003/cs.0003032 2630000[\ccgolog, \shadowbox]; 1 missing file[aaai.sty].
163290 2013-02-25 18:02:34 /0003/cs.0003047 3380000[\IMPL, \shortcite, \nocopyright, \OR, \AND, \listfiles]; 2 missing files[afterpage.sty, aaai.sty].
163291 2013-02-25 18:02:28 /0003/cs.0003042 230000[\citeauthoryear, \citeyear]; 1 missing file[aaai.sty].
163292 2013-02-25 18:02:20 /0003/cs.0003023 17330000[\citeauthoryear, \nocopyright]; 1 missing file[aaai.sty].
163293 2013-02-25 18:02:19 /0003/cs.0003030 5380000[{verbatimtab}, \nocopyright]; 1 missing file[aaai.sty].
163294 2013-02-25 18:02:15 /0003/cs.0003031 850000[\citeauthoryear, {definition}, {theorem}, {corollary}]; 1 missing file[aaai.sty].
163295 2013-02-25 18:02:11 /0003/cs.0003019 2630000[\citeauthoryear, \nocopyright]; 1 missing file[aaai.sty].
163296 2013-02-25 18:02:10 /0003/cs.0003034 520000[\And]; 1 missing file[aaai.sty].
163297 2013-02-25 18:02:06 /0003/cs.0003037 620000[\citeauthoryear]; 1 missing file[aaai.sty].
163298 2013-02-25 18:02:03 /0003/cs.0003036 1450000[\citeauthoryear, \AND]; 1 missing file[aaai.sty].
163299 2013-02-25 18:02:02 /0003/cs.0003033 130000[\citeauthoryear, \copyrighttext]; 1 missing file[aaai.sty].
163300 2013-02-25 18:02:01 /0003/cs.0003009 11720000[\citeauthoryear]; 1 missing file[aaai.sty].
163301 2013-02-25 18:02:00 /0003/cs.0003021 3730000[\And]; 1 missing file[aaai.sty].
163302 2013-02-25 18:01:57 /0003/cs.0003008 9840000[\citeauthoryear, \nocopyright]; 2 missing files[named.sty, aaai.sty].
163303 2013-02-25 18:01:50 /0003/cs.0003014 5840000[\citeauthoryear, \nocopyright, \And]; 1 missing file[aaai.sty].
163304 2013-02-25 18:01:47 /0003/cs.0003028 1530000[\citeauthoryear, \And]; 1 missing file[aaai.sty].
163305 2013-02-25 18:01:46 /0003/cs.0003007 1980000[\citeauthoryear, \nocopyright]; 2 missing files[named.sty, aaai.sty].
163306 2013-02-25 18:01:44 /0003/cs.0003024 030000[\citeauthoryear, \And]; 1 missing file[aaai.sty].
163307 2013-02-25 18:01:44 /0003/cs.0003025 630000[\citeauthoryear, \nocopyright]; 1 missing file[aaai.sty].
163308 2013-02-25 18:01:41 /0003/cs.0003027 5200000[\sss, \XX, \ra, \specialchar, \la, \ttt, \YY, \rewriteto, \lra, \nocopyright, {verbatimtab}]; 1 missing file[aaai.sty].
163309 2013-02-25 18:01:08 /0003/cs.0003016 030000[\citeauthoryear, \nocopyright]; 1 missing file[aaai.sty].
163310 2013-02-25 18:01:07 /0003/cs.0003011 020000[\nocopyright]; 1 missing file[aaai.sty].
163311 2013-02-25 18:01:00 /1201/1201.3773 1520000[\CompileMatrices]; 1 missing file[xy.sty].
163312 2013-02-25 18:00:57 /0003/cs.0003006 38150000[\fullversion, \ordinalg, \subsections, {example}, \sections, \subsubsections, \reminder, \eat, \eatreminders, \union]; 2 missing files[defpaper.sty, psfig].
163313 2013-02-25 18:00:49 /0003/cs.0003005 5130000[\subsections, \sections, \reminder, \eat, \eatreminders, \ordinalg]; 2 missing files[defpaper.sty, psfig].
163314 2013-02-25 18:00:46 /1201/1201.3771 180000[\address, \titlealternative, \hyp, \reference, \makeframing, \www, \authoralternative]; 2 missing files[hyphenat.sty, ETHpaper.cls].
163315 2013-02-25 18:00:38 /1201/1201.3772 110000[\date]; 1 missing file[IEEEtran.cls].
163316 2013-02-25 18:00:30 /0003/cond-mat.0003509 3130000[\email, \@affiliation, \onefigure, \chem, \etal].
163317 2013-02-25 18:00:26 /0003/cond-mat.0003510 260000[\twoimages, \un, \@affiliation, \onefigure].
163318 2013-02-25 18:00:09 /0003/cond-mat.0003465 7840000[\psfig]; 1 missing file[psfig].
163319 2013-02-25 17:59:25 /0003/cond-mat.0003485 240000[\epsfile]; 1 missing file[epsbox.sty].
163320 2013-02-25 17:59:00 /0003/cond-mat.0003476 640000[\epsfbox, \epsfxsize]; 2 missing files[subeqna.sty, jpsjbs.sty].
163321 2013-02-25 17:58:32 /0003/cond-mat.0003473 5540000[\turnbox, \tmspace, \psfrag, \txtmu].
163322 2013-02-25 17:56:34 /0003/cond-mat.0003464 1640000[\epsffile, \epsfysize]; 2 missing files[subeqna.sty, jpsjbs.sty].
163323 2013-02-25 17:55:53 /0003/cond-mat.0003452 220000[\psfig]; 1 missing file[psfig].
163324 2013-02-25 17:53:44 /0003/cond-mat.0003416 020000[\psfig]; 1 missing file[psfig].
163325 2013-02-25 17:53:38 /0003/cond-mat.0003422 740000[\epsffile, \epsfysize]; 2 missing files[subeqna.sty, jpsjbs.sty].
163326 2013-02-25 17:52:59 /0003/cond-mat.0003410 490000[\euro, \pacs, \inst, \rec, \institute, \Date].
163327 2013-02-25 17:52:38 /0003/cond-mat.0003396 220000[\psfig]; 1 missing file[psfig].
163328 2013-02-25 17:52:13 /0003/cond-mat.0003383 1780000[\twofigures, \email, \@affiliation, \upd, \etal].
163329 2013-02-25 17:51:02 /0003/cond-mat.0003381 2120000[\MakeShortVerb]; 1 missing file[shortvrb.sty].
163330 2013-02-25 17:50:53 /0003/cond-mat.0003377 390000[\Titel, \psfig, \Adresse, \Kurztitel, \Kurzautor]; 1 missing file[vieweg.sty].
163331 2013-02-25 17:50:36 /0003/cond-mat.0003362 250000[\twofigures, \email, \@affiliation].
163332 2013-02-25 17:48:40 /0003/cond-mat.0003348 5760000[\includegraphics, {fullfigure}, \citet]; 2 missing files[subeqna.sty, jpsjbs.sty].
163333 2013-02-25 17:48:37 /0003/cond-mat.0003344 1060000[\psfig]; 1 missing file[psfig].
163334 2013-02-25 17:48:06 /0003/cond-mat.0003347 1190000[\mib, \citet, \epsfigure, \epsfxsize]; 2 missing files[subeqna.sty, jpsjbs.sty].
163335 2013-02-25 17:47:17 /0003/cond-mat.0003337 610000[{spacing}].
163336 2013-02-25 17:46:46 /0003/cond-mat.0003321 1710000[\footrulewidth].
163337 2013-02-25 17:46:36 /0003/cond-mat.0003322 2160000[\rotate].
163338 2013-02-25 17:46:16 /0003/cond-mat.0003327 8120000[\euro, \pacs, \inst, \rec, \institute, \Date].
163339 2013-02-25 17:45:36 /0003/cond-mat.0003316 210000[\footrulewidth].
163340 2013-02-25 17:45:29 /0003/cond-mat.0003317 020000[\epsfbox, \epsfxsize].
163341 2013-02-25 17:45:25 /0003/cond-mat.0003300 630000[Align, \+, \columns].
163342 2013-02-25 17:44:02 /0003/cond-mat.0003292 290000[\euro, \pacs, \rec, \institute, \Date].
163343 2013-02-25 17:43:47 /0003/cond-mat.0003296 3220000[\psfig]; 1 missing file[psfig].
163344 2013-02-25 17:42:30 /0003/cond-mat.0003284 210000[\a].
163345 2013-02-25 17:42:23 /0003/cond-mat.0003266 310000[\overset].
163346 2013-02-25 17:42:00 /0003/cond-mat.0003275 020000[\a]; 1 missing file[psfig].
163347 2013-02-25 17:41:15 /0003/cond-mat.0003259 1580000[\t@gsin, \t@gline, \alloc@]; 1 missing file[cond-mat.0003259.aux].
163348 2013-02-25 17:39:52 /0003/cond-mat.0003221 340880000[\theappendix].
163349 2013-02-25 17:39:10 /0003/cond-mat.0003206 570000[\pls, \unit, \mns, \eq]; 1 missing file[{macro_library.tex}].
163350 2013-02-25 17:38:59 /0003/cond-mat.0003207 030000[\address, \pacs]; 1 missing file[pmart.sty].
163351 2013-02-25 17:38:51 /0003/cond-mat.0003194 10110000[\pacs, \inst, \lesssim, \epsfig, \institute, \Date, \euro, \shorttitle, \rec, \Pacs]; 1 missing file[EuroPhys.sty].
163352 2013-02-25 17:38:00 /0003/cond-mat.0003188 440000[\@affiliation, \oneimage, \onefigure].
163353 2013-02-25 17:37:50 /0003/cond-mat.0003172 530000[\inst, \titlerunning, \institute]; 1 missing file[proceed.cls].
163354 2013-02-25 17:37:37 /0003/cond-mat.0003180 4010000[\psfrag].
163355 2013-02-25 17:37:28 /0003/cond-mat.0003176 720000[\psfig]; 1 missing file[psfig].
163356 2013-02-25 17:36:54 /0003/cond-mat.0003171 1750000[{acknowledgments}, \pacs, \email, \affiliation, \homepage]; 1 missing file[revtex4b3.cls].
163357 2013-02-25 17:36:34 /0003/cond-mat.0003169 320000[\CITE].
163358 2013-02-25 17:30:56 /0003/cond-mat.0003052 4060000[\citeyear, \shortciteANP, \citeyearNP, \shortcite, \shortciteNP, \citeANP].
163359 2013-02-25 17:27:16 /0003/cond-mat.0003095 840000[\psfig]; 1 missing file[psfig].
163360 2013-02-25 17:26:53 /0003/cond-mat.0003158 3050000[\footrulewidth].
163361 2013-02-25 17:26:48 /0003/cond-mat.0003113 480000[\euro, \pacs, \rec, \institute, \Date].
163362 2013-02-25 17:26:47 /0003/cond-mat.0003105 530000[\address, \pacs]; 1 missing file[pmart.sty].
163363 2013-02-25 17:26:46 /0003/cond-mat.0003066 630000[\epsfile]; 2 missing files[subeqna.sty, jpsjbs.sty].
163364 2013-02-25 17:26:35 /0003/cond-mat.0003119 090000[\euro, \pacs, \inst, \rec, \institute, \Date].
163365 2013-02-25 17:26:30 /0003/cond-mat.0003141 1860000[\epsfbox, \citet, \epsfxsize]; 2 missing files[subeqna.sty, jpsjbs.sty].
163366 2013-02-25 17:26:19 /0003/cond-mat.0003131 010000[\footrulewidth].
163367 2013-02-25 17:26:12 /0003/cond-mat.0003142 010000[\footrulewidth].
163368 2013-02-25 17:26:01 /0003/cond-mat.0003101 1110000[\epsfile].
163369 2013-02-25 17:26:00 /0003/cond-mat.0003067 010000[\footrulewidth].
163370 2013-02-25 17:25:52 /0003/cond-mat.0003076 1420000[\abstracts]; 1 missing file[ws.sty].
163371 2013-02-25 17:25:41 /0003/cond-mat.0003088 020000[\setdec]; 1 missing file[prbbib.sty].
163372 2013-02-25 17:25:27 /0003/cond-mat.0003161 420000[\address, \pacs]; 1 missing file[revtex4b3.cls].
163373 2013-02-25 17:20:50 /0003/astro-ph.0003438 0270000[\affil, \colhead, \tablehead, \psfig, \tablewidth, \keywords, {deluxetable}, \startdata, Align, \tablecaption, {references}, \enddata, {acknowledgements}]; 3 missing files[dlxtbl.sty, epsfig_latex209.sty, bo99.sty].
163374 2013-02-25 17:18:38 /0003/cond-mat.0003029 120000[\epsfig]; 1 missing file[epsfig].
163375 2013-02-25 17:18:07 /0003/astro-ph.0003481 3310000[\theappendix].
163376 2013-02-25 17:17:43 /0003/cond-mat.0003014 020000[\psfig, \mathfrak].
163377 2013-02-25 17:17:40 /0003/astro-ph.0003451 1150000[\affil, \apj, \aj, \tableline, \aap, \acknowledgments, \keywords, {answer}, \mnras, \plotone, \reference, {question}, {references}]; 1 missing file[newpasp.sty].
163378 2013-02-25 17:17:32 /0003/astro-ph.0003440 240000[\psfig]; 1 missing file[psfig].
163379 2013-02-25 17:17:29 /0003/astro-ph.0003452 57810000[\bmath].
163380 2013-02-25 17:17:17 /0003/astro-ph.0003485 19350000[\PLB, \PRD, \NPB, \Journal, \epsfbox, \abstracts, \be, \PRL, \ee, \epsfxsize]; 1 missing file[ws.sty].
163381 2013-02-25 17:17:16 /0003/astro-ph.0003484 1710000[\theappendix].
163382 2013-02-25 17:17:07 /0003/cond-mat.0003048 2530000[\rotate].
163383 2013-02-25 17:16:51 /0003/cond-mat.0003036 710000[\psfrag].
163384 2013-02-25 17:16:48 /0003/astro-ph.0003474 22100000[\psfig, \skiplinehalf, \acknowledgments, \keywords]; 1 missing file[psfig].
163385 2013-02-25 17:16:33 /0003/astro-ph.0003437 050000[\affil, {references}, {acknowledgements}, \keywords]; 1 missing file[bo99.sty].
163386 2013-02-25 17:16:33 /0003/astro-ph.0003472 1070000[\psboxto]; 2 missing files[aabib.sty, psbox.tex].
163387 2013-02-25 17:16:22 /0003/astro-ph.0003450 0140000[\affil, \apj, \aj, \aaps, \aap, \keywords, {answer}, \mnras, \reference, {question}, {references}, \araa, \acknowledgements]; 1 missing file[newpasp.sty].
163388 2013-02-25 17:16:14 /0003/astro-ph.0003467 010000[\theappendix].
163389 2013-02-25 17:16:10 /0003/astro-ph.0003454 010000[\astroncite].
163390 2013-02-25 17:16:02 /0003/astro-ph.0003471 010000[\submitted].
163391 2013-02-25 17:15:59 /0003/astro-ph.0003477 010000[\psfigurepath].
163392 2013-02-25 17:15:30 /0003/astro-ph.0003410 3510000[\psfig].
163393 2013-02-25 17:13:18 /0003/astro-ph.0003358 16550000[\theappendix].
163394 2013-02-25 17:13:09 /0003/astro-ph.0003351 1280000[\includegraphics, {keywords}, \gtrsim, \lesssim, \affiliation, \thickapprox, \resizebox]; 1 missing file[prepar.sty].
163395 2013-02-25 17:13:02 /0003/astro-ph.0003372 730000[\psfig].
163396 2013-02-25 17:12:58 /0003/astro-ph.0003386 4480000[{acknowledgments}, \affil, {keywords}, \articletitle, \kluwerbib, \email, \booktitle, {chapthebibliography}].
163397 2013-02-25 17:12:52 /0003/astro-ph.0003373 1150000[\affil, \apj, \aj, \apss, \tableline, \plotfiddle, \aap, \acknowledgments, \keywords, \mnras, \pasp, \plotone, \reference, {references}]; 1 missing file[newpasp.sty].
163398 2013-02-25 17:12:42 /0003/astro-ph.0003415 4470000[\fcitet, \@nil, \fcitep, \submitted, \cay, \acite]; 1 missing file[newapa.sty].
163399 2013-02-25 17:12:29 /0003/astro-ph.0003429 0920000[{planotable}].
163400 2013-02-25 17:12:28 /0003/astro-ph.0003418 1110000[\Abstract, \refitem, {Titlepage}, \Author, \Received, \SetVol, \nofiles, \SetPages, {references}, \Title, \Acknow]; 1 missing file[acta.cls].
<<< >>>

[0] [200] [400] [600] [800] [1000] [1200] [1400] [1600] [1800] [2000] [2200] [2400] [2600] [2800] [3000] [3200] [3400] [3600] [3800] [4000] [4200] [4400] [4600] [4800] [5000] [5200] [5400] [5600] [5800] [6000] [6200] [6400] [6600] [6800] [7000] [7200] [7400] [7600] [7800] [8000] [8200] [8400] [8600] [8800] [9000] [9200] [9400] [9600] [9800] [10000] [10200] [10400] [10600] [10800] [11000] [11200] [11400] [11600] [11800] [12000] [12200] [12400] [12600] [12800] [13000] [13200] [13400] [13600] [13800] [14000] [14200] [14400] [14600] [14800] [15000] [15200] [15400] [15600] [15800] [16000] [16200] [16400] [16600] [16800] [17000] [17200] [17400] [17600] [17800] [18000] [18200] [18400] [18600] [18800] [19000] [19200] [19400] [19600] [19800] [20000] [20200] [20400] [20600] [20800] [21000] [21200] [21400] [21600] [21800] [22000] [22200] [22400] [22600] [22800] [23000] [23200] [23400] [23600] [23800] [24000] [24200] [24400] [24600] [24800] [25000] [25200] [25400] [25600] [25800] [26000] [26200] [26400] [26600] [26800] [27000] [27200] [27400] [27600] [27800] [28000] [28200] [28400] [28600] [28800] [29000] [29200] [29400] [29600] [29800] [30000] [30200] [30400] [30600] [30800] [31000] [31200] [31400] [31600] [31800] [32000] [32200] [32400] [32600] [32800] [33000] [33200] [33400] [33600] [33800] [34000] [34200] [34400] [34600] [34800] [35000] [35200] [35400] [35600] [35800] [36000] [36200] [36400] [36600] [36800] [37000] [37200] [37400] [37600] [37800] [38000] [38200] [38400] [38600] [38800] [39000] [39200] [39400] [39600] [39800] [40000] [40200] [40400] [40600] [40800] [41000] [41200] [41400] [41600] [41800] [42000] [42200] [42400] [42600] [42800] [43000] [43200] [43400] [43600] [43800] [44000] [44200] [44400] [44600] [44800] [45000] [45200] [45400] [45600] [45800] [46000] [46200] [46400] [46600] [46800] [47000] [47200] [47400] [47600] [47800] [48000] [48200] [48400] [48600] [48800] [49000] [49200] [49400] [49600] [49800] [50000] [50200] [50400] [50600] [50800] [51000] [51200] [51400] [51600] [51800] [52000] [52200] [52400] [52600] [52800] [53000] [53200] [53400] [53600] [53800] [54000] [54200] [54400] [54600] [54800] [55000] [55200] [55400] [55600] [55800] [56000] [56200] [56400] [56600] [56800] [57000] [57200] [57400] [57600] [57800] [58000] [58200] [58400] [58600] [58800] [59000] [59200] [59400] [59600] [59800] [60000] [60200] [60400] [60600] [60800] [61000] [61200] [61400] [61600] [61800] [62000] [62200] [62400] [62600] [62800] [63000] [63200] [63400] [63600] [63800] [64000] [64200] [64400] [64600] [64800] [65000] [65200] [65400] [65600] [65800] [66000] [66200] [66400] [66600] [66800] [67000] [67200] [67400] [67600] [67800] [68000] [68200] [68400] [68600] [68800] [69000] [69200] [69400] [69600] [69800] [70000] [70200] [70400] [70600] [70800] [71000] [71200] [71400] [71600] [71800] [72000] [72200] [72400] [72600] [72800] [73000] [73200] [73400] [73600] [73800] [74000] [74200] [74400] [74600] [74800] [75000] [75200] [75400] [75600] [75800] [76000] [76200] [76400] [76600] [76800] [77000] [77200] [77400] [77600] [77800] [78000] [78200] [78400] [78600] [78800] [79000] [79200] [79400] [79600] [79800] [80000] [80200] [80400] [80600] [80800] [81000] [81200] [81400] [81600] [81800] [82000] [82200] [82400] [82600] [82800] [83000] [83200] [83400] [83600] [83800] [84000] [84200] [84400] [84600] [84800] [85000] [85200] [85400] [85600] [85800] [86000] [86200] [86400] [86600] [86800] [87000] [87200] [87400] [87600] [87800] [88000] [88200] [88400] [88600] [88800] [89000] [89200] [89400] [89600] [89800] [90000] [90200] [90400] [90600] [90800] [91000] [91200] [91400] [91600] [91800] [92000] [92200] [92400] [92600] [92800] [93000] [93200] [93400] [93600] [93800] [94000] [94200] [94400] [94600] [94800] [95000] [95200] [95400] [95600] [95800] [96000] [96200] [96400] [96600] [96800] [97000] [97200] [97400] [97600] [97800] [98000] [98200] [98400] [98600] [98800] [99000] [99200] [99400] [99600] [99800] [100000] [100200] [100400] [100600] [100800] [101000] [101200] [101400] [101600] [101800] [102000] [102200] [102400] [102600] [102800] [103000] [103200] [103400] [103600] [103800] [104000] [104200] [104400] [104600] [104800] [105000] [105200] [105400] [105600] [105800] [106000] [106200] [106400] [106600] [106800] [107000] [107200] [107400] [107600] [107800] [108000] [108200] [108400] [108600] [108800] [109000] [109200] [109400] [109600] [109800] [110000] [110200] [110400] [110600] [110800] [111000] [111200] [111400] [111600] [111800] [112000] [112200] [112400] [112600] [112800] [113000] [113200] [113400] [113600] [113800] [114000] [114200] [114400] [114600] [114800] [115000] [115200] [115400] [115600] [115800] [116000] [116200] [116400] [116600] [116800] [117000] [117200] [117400] [117600] [117800] [118000] [118200] [118400] [118600] [118800] [119000] [119200] [119400] [119600] [119800] [120000] [120200] [120400] [120600] [120800] [121000] [121200] [121400] [121600] [121800] [122000] [122200] [122400] [122600] [122800] [123000] [123200] [123400] [123600] [123800] [124000] [124200] [124400] [124600] [124800] [125000] [125200] [125400] [125600] [125800] [126000] [126200] [126400] [126600] [126800] [127000] [127200] [127400] [127600] [127800] [128000] [128200] [128400] [128600] [128800] [129000] [129200] [129400] [129600] [129800] [130000] [130200] [130400] [130600] [130800] [131000] [131200] [131400] [131600] [131800] [132000] [132200] [132400] [132600] [132800] [133000] [133200] [133400] [133600] [133800] [134000] [134200] [134400] [134600] [134800] [135000] [135200] [135400] [135600] [135800] [136000] [136200] [136400] [136600] [136800] [137000] [137200] [137400] [137600] [137800] [138000] [138200] [138400] [138600] [138800] [139000] [139200] [139400] [139600] [139800] [140000] [140200] [140400] [140600] [140800] [141000] [141200] [141400] [141600] [141800] [142000] [142200] [142400] [142600] [142800] [143000] [143200] [143400] [143600] [143800] [144000] [144200] [144400] [144600] [144800] [145000] [145200] [145400] [145600] [145800] [146000] [146200] [146400] [146600] [146800] [147000] [147200] [147400] [147600] [147800] [148000] [148200] [148400] [148600] [148800] [149000] [149200] [149400] [149600] [149800] [150000] [150200] [150400] [150600] [150800] [151000] [151200] [151400] [151600] [151800] [152000] [152200] [152400] [152600] [152800] [153000] [153200] [153400] [153600] [153800] [154000] [154200] [154400] [154600] [154800] [155000] [155200] [155400] [155600] [155800] [156000] [156200] [156400] [156600] [156800] [157000] [157200] [157400] [157600] [157800] [158000] [158200] [158400] [158600] [158800] [159000] [159200] [159400] [159600] [159800] [160000] [160200] [160400] [160600] [160800] [161000] [161200] [161400] [161600] [161800] [162000] [162200] [162400] [162600] [162800] [163000] [163200] [163400] [163600] [163800] [164000] [164200] [164400] [164600]
 
  The service has been written by
Heinrich Stamerjohanns